createdAt,value
2023-02-26T00:00:14.017Z,67.60
2023-02-26T00:03:06.515Z,67.63
2023-02-26T00:05:38.799Z,67.75
2023-02-26T00:08:11.234Z,67.84
2023-02-26T00:10:43.652Z,67.78
2023-02-26T00:13:17.169Z,67.82
2023-02-26T00:15:52.581Z,67.79
2023-02-26T00:18:25.763Z,67.76
2023-02-26T00:20:59.417Z,67.89
2023-02-26T00:23:32.387Z,67.88
2023-02-26T00:26:04.718Z,67.96
2023-02-26T00:28:38.295Z,67.94
2023-02-26T00:31:12.530Z,68.11
2023-02-26T00:33:46.736Z,68.19
2023-02-26T00:36:26.092Z,68.04
2023-02-26T00:39:11.284Z,68.08
2023-02-26T00:41:44.724Z,68.16
2023-02-26T00:44:18.483Z,68.20
2023-02-26T00:46:55.718Z,68.26
2023-02-26T00:49:40.085Z,68.13
2023-02-26T00:52:20.610Z,68.12
2023-02-26T00:54:52.854Z,68.14
2023-02-26T00:57:25.190Z,68.17
2023-02-26T00:59:57.571Z,68.05
2023-02-26T01:02:31.045Z,68.16
2023-02-26T01:05:04.774Z,68.15
2023-02-26T01:07:46.739Z,68.15
2023-02-26T01:10:21.160Z,68.15
2023-02-26T01:12:56.085Z,68.21
2023-02-26T01:15:29.431Z,68.26
2023-02-26T01:18:11.343Z,68.32
2023-02-26T01:20:49.106Z,68.26
2023-02-26T01:23:27.264Z,68.25
2023-02-26T01:26:03.673Z,68.35
2023-02-26T01:28:37.262Z,68.24
2023-02-26T01:31:20.543Z,68.24
2023-02-26T01:33:57.858Z,68.31
2023-02-26T01:36:37.638Z,68.34
2023-02-26T01:39:14.006Z,68.35
2023-02-26T01:41:51.283Z,68.43
2023-02-26T01:44:28.909Z,68.35
2023-02-26T01:47:13.002Z,68.43
2023-02-26T01:49:46.269Z,68.27
2023-02-26T01:52:48.926Z,68.32
2023-02-26T01:55:24.763Z,68.27
2023-02-26T01:57:57.432Z,68.26
2023-02-26T02:00:30.311Z,68.20
2023-02-26T02:03:03.330Z,68.26
2023-02-26T02:05:43.190Z,68.27
2023-02-26T02:08:16.916Z,68.28
2023-02-26T02:10:52.638Z,68.34
2023-02-26T02:13:37.053Z,68.38
2023-02-26T02:16:22.548Z,68.39
2023-02-26T02:19:04.434Z,68.39
2023-02-26T02:21:55.585Z,68.50
2023-02-26T02:24:41.495Z,68.45
2023-02-26T02:27:20.406Z,68.50
2023-02-26T02:30:11.263Z,68.47
2023-02-26T02:32:48.592Z,68.23
2023-02-26T02:35:26.046Z,68.35
2023-02-26T02:38:05.684Z,68.26
2023-02-26T02:40:43.086Z,68.28
2023-02-26T02:43:19.846Z,68.11
2023-02-26T02:45:56.108Z,68.11
2023-02-26T02:48:33.522Z,67.96
2023-02-26T02:51:10.066Z,68.02
2023-02-26T02:53:45.625Z,67.95
2023-02-26T02:56:22.117Z,67.88
2023-02-26T02:58:59.429Z,67.93
2023-02-26T03:01:34.535Z,67.91
2023-02-26T03:04:10.411Z,67.90
2023-02-26T03:06:41.075Z,67.88
2023-02-26T03:09:14.372Z,67.86
2023-02-26T03:11:46.719Z,67.90
2023-02-26T03:14:19.466Z,67.90
2023-02-26T03:17:15.410Z,67.74
2023-02-26T03:20:01.166Z,67.86
2023-02-26T03:22:41.219Z,67.85
2023-02-26T03:25:18.164Z,67.90
2023-02-26T03:27:56.528Z,67.86
2023-02-26T03:30:35.590Z,67.93
2023-02-26T03:33:15.305Z,67.91
2023-02-26T03:35:54.929Z,67.79
2023-02-26T03:38:34.313Z,67.89
2023-02-26T03:41:11.267Z,67.74
2023-02-26T03:43:47.719Z,67.73
2023-02-26T03:46:23.869Z,67.65
2023-02-26T03:48:59.333Z,67.78
2023-02-26T03:51:32.267Z,67.69
2023-02-26T03:54:09.967Z,67.76
2023-02-26T03:56:45.207Z,67.66
2023-02-26T03:59:18.603Z,67.72
2023-02-26T04:01:56.143Z,67.64
2023-02-26T04:04:33.965Z,67.65
2023-02-26T04:07:06.520Z,67.59
2023-02-26T04:09:39.145Z,67.46
2023-02-26T04:12:11.880Z,67.55
2023-02-26T04:14:44.296Z,67.63
2023-02-26T04:17:18.629Z,67.68
2023-02-26T04:19:51.244Z,67.65
2023-02-26T04:22:23.694Z,67.54
2023-02-26T04:24:55.997Z,67.70
2023-02-26T04:27:28.410Z,67.60
2023-02-26T04:30:00.762Z,67.71
2023-02-26T04:32:33.195Z,67.69
2023-02-26T04:35:05.977Z,67.80
2023-02-26T04:37:38.348Z,67.91
2023-02-26T04:40:13.212Z,68.05
2023-02-26T04:42:47.418Z,68.06
2023-02-26T04:45:20.078Z,68.03
2023-02-26T04:47:52.445Z,68.05
2023-02-26T04:50:24.805Z,68.00
2023-02-26T04:52:57.211Z,68.03
2023-02-26T04:55:29.595Z,68.07
2023-02-26T04:58:01.859Z,68.12
2023-02-26T05:00:34.933Z,68.06
2023-02-26T05:03:08.844Z,67.95
2023-02-26T05:05:41.315Z,67.88
2023-02-26T05:08:14.264Z,67.86
2023-02-26T05:10:47.122Z,67.77
2023-02-26T05:13:19.543Z,67.65
2023-02-26T05:15:54.446Z,67.67
2023-02-26T05:18:26.868Z,67.56
2023-02-26T05:20:59.877Z,67.58
2023-02-26T05:23:32.154Z,67.42
2023-02-26T05:26:05.040Z,67.52
2023-02-26T05:28:38.286Z,67.47
2023-02-26T05:31:10.922Z,67.32
2023-02-26T05:33:43.977Z,67.40
2023-02-26T05:36:16.438Z,67.34
2023-02-26T05:38:48.725Z,67.15
2023-02-26T05:41:21.238Z,66.99
2023-02-26T05:43:53.995Z,66.83
2023-02-26T05:46:26.554Z,66.76
2023-02-26T05:48:59.088Z,66.87
2023-02-26T05:51:31.613Z,66.79
2023-02-26T05:54:03.964Z,66.65
2023-02-26T05:56:36.236Z,66.70
2023-02-26T05:59:08.465Z,66.61
2023-02-26T06:01:40.860Z,66.49
2023-02-26T06:04:13.166Z,66.48
2023-02-26T06:06:45.494Z,66.52
2023-02-26T06:09:18.139Z,66.30
2023-02-26T06:11:50.506Z,66.28
2023-02-26T06:14:22.945Z,66.21
2023-02-26T06:16:55.374Z,66.35
2023-02-26T06:19:27.828Z,66.43
2023-02-26T06:22:00.216Z,66.48
2023-02-26T06:24:32.505Z,66.43
2023-02-26T06:27:04.798Z,66.31
2023-02-26T06:29:37.790Z,66.45
2023-02-26T06:32:10.457Z,66.68
2023-02-26T06:34:42.938Z,66.56
2023-02-26T06:37:15.442Z,66.68
2023-02-26T06:39:47.834Z,66.52
2023-02-26T06:42:20.416Z,66.49
2023-02-26T06:44:52.798Z,66.38
2023-02-26T06:47:25.121Z,66.75
2023-02-26T06:49:57.601Z,66.87
2023-02-26T06:52:29.918Z,66.87
2023-02-26T06:55:02.248Z,66.82
2023-02-26T06:57:34.749Z,66.97
2023-02-26T07:00:09.439Z,66.80
2023-02-26T07:02:41.931Z,66.89
2023-02-26T07:05:14.517Z,66.82
2023-02-26T07:07:47.180Z,66.76
2023-02-26T07:10:21.714Z,66.63
2023-02-26T07:12:54.133Z,66.69
2023-02-26T07:15:26.577Z,66.74
2023-02-26T07:18:00.264Z,66.63
2023-02-26T07:20:32.899Z,66.56
2023-02-26T07:23:05.606Z,66.61
2023-02-26T07:25:38.675Z,66.64
2023-02-26T07:28:11.055Z,66.65
2023-02-26T07:30:43.528Z,66.63
2023-02-26T07:33:16.180Z,66.41
2023-02-26T07:35:48.506Z,66.55
2023-02-26T07:38:20.913Z,66.53
2023-02-26T07:40:55.692Z,66.30
2023-02-26T07:43:27.983Z,66.21
2023-02-26T07:46:00.504Z,66.28
2023-02-26T07:48:32.887Z,66.22
2023-02-26T07:51:07.430Z,66.10
2023-02-26T07:53:40.180Z,66.17
2023-02-26T07:56:12.541Z,66.17
2023-02-26T07:58:44.902Z,66.16
2023-02-26T08:01:17.356Z,66.16
2023-02-26T08:03:49.668Z,65.91
2023-02-26T08:06:21.954Z,65.95
2023-02-26T08:08:54.242Z,66.04
2023-02-26T08:11:26.616Z,65.92
2023-02-26T08:13:59.116Z,65.89
2023-02-26T08:16:31.503Z,65.76
2023-02-26T08:19:03.800Z,65.75
2023-02-26T08:21:36.172Z,65.68
2023-02-26T08:24:09.128Z,65.65
2023-02-26T08:26:41.489Z,65.55
2023-02-26T08:29:14.083Z,65.70
2023-02-26T08:31:47.064Z,65.67
2023-02-26T08:34:19.553Z,65.64
2023-02-26T08:36:51.930Z,65.65
2023-02-26T08:39:24.385Z,65.51
2023-02-26T08:41:56.691Z,65.49
2023-02-26T08:44:29.042Z,65.34
2023-02-26T08:47:01.370Z,65.19
2023-02-26T08:49:33.776Z,65.49
2023-02-26T08:52:06.368Z,65.28
2023-02-26T08:54:38.853Z,65.31
2023-02-26T08:57:11.217Z,65.22
2023-02-26T08:59:43.716Z,65.20
2023-02-26T09:02:16.218Z,65.24
2023-02-26T09:04:48.605Z,65.15
2023-02-26T09:07:20.923Z,65.11
2023-02-26T09:09:53.200Z,65.06
2023-02-26T09:12:25.702Z,65.16
2023-02-26T09:14:59.275Z,65.03
2023-02-26T09:17:31.607Z,65.03
2023-02-26T09:20:04.959Z,65.17
2023-02-26T09:22:38.159Z,65.19
2023-02-26T09:25:12.157Z,65.26
2023-02-26T09:27:44.489Z,64.98
2023-02-26T09:30:18.371Z,64.94
2023-02-26T09:32:50.867Z,64.88
2023-02-26T09:35:23.569Z,64.71
2023-02-26T09:37:55.874Z,64.44
2023-02-26T09:40:38.257Z,64.35
2023-02-26T09:43:35.272Z,64.23
2023-02-26T09:46:13.814Z,64.02
2023-02-26T09:48:47.739Z,63.65
2023-02-26T09:51:23.826Z,62.26
2023-02-26T09:54:01.017Z,62.47
2023-02-26T09:56:38.169Z,62.29
2023-02-26T09:59:12.285Z,61.89
2023-02-26T10:01:52.400Z,59.65
2023-02-26T10:04:40.921Z,57.99
2023-02-26T10:07:23.161Z,58.37
2023-02-26T10:10:06.848Z,58.79
2023-02-26T10:12:42.062Z,58.81
2023-02-26T10:15:19.388Z,57.86
2023-02-26T10:18:04.642Z,58.25
2023-02-26T10:20:43.234Z,56.37
2023-02-26T10:23:26.388Z,56.81
2023-02-26T10:26:04.525Z,56.01
2023-02-26T10:28:52.343Z,55.40
2023-02-26T10:31:33.875Z,55.36
2023-02-26T10:34:23.213Z,54.75
2023-02-26T10:37:05.800Z,54.03
2023-02-26T10:39:45.787Z,53.34
2023-02-26T10:42:25.900Z,53.06
2023-02-26T10:45:09.131Z,52.84
2023-02-26T10:47:51.318Z,52.39
2023-02-26T10:50:26.726Z,52.01
2023-02-26T10:53:00.315Z,51.95
2023-02-26T10:55:40.591Z,52.08
2023-02-26T10:58:16.803Z,51.57
2023-02-26T11:00:53.954Z,50.93
2023-02-26T11:03:35.666Z,50.17
2023-02-26T11:06:09.614Z,50.14
2023-02-26T11:08:45.359Z,50.48
2023-02-26T11:11:39.152Z,48.84
2023-02-26T11:14:12.822Z,49.30
2023-02-26T11:16:50.407Z,49.13
2023-02-26T11:19:28.650Z,48.90
2023-02-26T11:22:04.278Z,48.01
2023-02-26T11:24:37.401Z,47.41
2023-02-26T11:27:13.655Z,48.63
2023-02-26T11:29:50.651Z,48.24
2023-02-26T11:32:30.040Z,48.36
2023-02-26T11:35:02.514Z,47.73
2023-02-26T11:37:39.741Z,48.07
2023-02-26T11:40:18.810Z,47.37
2023-02-26T11:42:54.784Z,46.27
2023-02-26T11:45:27.764Z,47.05
2023-02-26T11:48:05.236Z,47.09
2023-02-26T11:50:44.283Z,46.58
2023-02-26T11:53:25.497Z,45.39
2023-02-26T11:56:03.710Z,46.01
2023-02-26T11:58:41.067Z,44.90
2023-02-26T12:01:14.950Z,44.64
2023-02-26T12:03:51.280Z,44.95
2023-02-26T12:06:25.835Z,44.73
2023-02-26T12:08:58.479Z,44.95
2023-02-26T12:11:57.796Z,45.02
2023-02-26T12:14:48.666Z,44.84
2023-02-26T12:17:33.430Z,44.90
2023-02-26T12:20:20.115Z,44.10
2023-02-26T12:23:03.544Z,44.28
2023-02-26T12:25:53.921Z,43.41
2023-02-26T12:28:55.485Z,43.44
2023-02-26T12:31:45.685Z,43.15
2023-02-26T12:34:29.639Z,43.14
2023-02-26T12:37:31.210Z,42.62
2023-02-26T12:40:13.641Z,43.33
2023-02-26T12:42:57.570Z,42.78
2023-02-26T12:45:42.177Z,42.89
2023-02-26T12:48:51.315Z,42.84
2023-02-26T12:51:39.891Z,42.74
2023-02-26T12:54:32.319Z,42.55
2023-02-26T12:57:36.938Z,42.35
2023-02-26T13:00:28.898Z,41.95
2023-02-26T13:03:46.404Z,41.96
2023-02-26T13:06:52.814Z,42.20
2023-02-26T13:09:34.480Z,41.99
2023-02-26T13:12:18.867Z,42.03
2023-02-26T13:15:01.680Z,41.62
2023-02-26T13:17:41.567Z,41.37
2023-02-26T13:20:18.967Z,41.34
2023-02-26T13:22:54.586Z,41.62
2023-02-26T13:25:29.492Z,40.96
2023-02-26T13:28:05.487Z,41.37
2023-02-26T13:30:42.534Z,40.64
2023-02-26T13:33:22.159Z,40.66
2023-02-26T13:35:56.899Z,40.57
2023-02-26T13:38:40.903Z,40.60
2023-02-26T13:41:18.088Z,40.50
2023-02-26T13:44:03.160Z,40.49
2023-02-26T13:46:49.693Z,40.68
2023-02-26T13:49:30.111Z,40.95
2023-02-26T13:52:02.566Z,40.80
2023-02-26T13:54:46.658Z,40.61
2023-02-26T13:57:44.396Z,40.34
2023-02-26T14:00:32.913Z,40.44
2023-02-26T14:03:31.162Z,40.27
2023-02-26T14:06:39.396Z,40.17
2023-02-26T14:09:55.456Z,40.17
2023-02-26T14:12:36.461Z,39.98
2023-02-26T14:15:40.828Z,40.16
2023-02-26T14:18:31.558Z,40.50
2023-02-26T14:21:35.886Z,40.12
2023-02-26T14:24:20.355Z,40.13
2023-02-26T14:27:05.729Z,40.09
2023-02-26T14:29:44.498Z,39.86
2023-02-26T14:32:28.638Z,39.97
2023-02-26T14:35:06.427Z,40.08
2023-02-26T14:37:42.725Z,40.23
2023-02-26T14:40:19.342Z,40.03
2023-02-26T14:42:54.520Z,40.36
2023-02-26T14:45:31.873Z,40.46
2023-02-26T14:48:06.900Z,40.29
2023-02-26T14:50:47.795Z,40.62
2023-02-26T14:53:47.213Z,40.72
2023-02-26T14:56:28.414Z,40.77
2023-02-26T14:59:18.107Z,40.93
2023-02-26T15:01:57.756Z,40.80
2023-02-26T15:05:00.051Z,40.72
2023-02-26T15:07:49.909Z,41.00
2023-02-26T15:10:45.085Z,40.74
2023-02-26T15:13:36.695Z,40.98
2023-02-26T15:16:20.064Z,41.19
2023-02-26T15:19:15.036Z,41.11
2023-02-26T15:22:02.370Z,41.14
2023-02-26T15:24:35.422Z,41.14
2023-02-26T15:27:11.345Z,41.20
2023-02-26T15:29:44.802Z,41.26
2023-02-26T15:32:25.130Z,41.27
2023-02-26T15:35:02.867Z,41.32
2023-02-26T15:37:35.678Z,41.26
2023-02-26T15:40:11.052Z,41.34
2023-02-26T15:42:46.424Z,41.39
2023-02-26T15:45:24.287Z,41.55
2023-02-26T15:48:00.430Z,41.50
2023-02-26T15:50:39.043Z,41.77
2023-02-26T15:53:15.535Z,41.74
2023-02-26T15:55:52.464Z,41.64
2023-02-26T15:58:32.381Z,41.78
2023-02-26T16:01:07.193Z,41.89
2023-02-26T16:03:41.288Z,41.92
2023-02-26T16:06:17.562Z,42.05
2023-02-26T16:08:50.132Z,41.94
2023-02-26T16:11:24.098Z,42.07
2023-02-26T16:13:56.732Z,41.95
2023-02-26T16:16:36.069Z,42.01
2023-02-26T16:19:11.012Z,42.23
2023-02-26T16:21:44.649Z,42.09
2023-02-26T16:24:21.176Z,42.30
2023-02-26T16:26:57.712Z,42.25
2023-02-26T16:29:32.033Z,42.31
2023-02-26T16:32:06.151Z,42.23
2023-02-26T16:34:44.564Z,42.39
2023-02-26T16:37:33.344Z,42.46
2023-02-26T16:40:24.164Z,42.57
2023-02-26T16:43:01.989Z,42.39
2023-02-26T16:45:54.071Z,42.48
2023-02-26T16:48:31.664Z,42.57
2023-02-26T16:51:07.641Z,42.67
2023-02-26T16:53:45.898Z,42.71
2023-02-26T16:56:21.596Z,42.79
2023-02-26T16:58:56.019Z,42.89
2023-02-26T17:01:28.757Z,42.82
2023-02-26T17:04:04.086Z,42.90
2023-02-26T17:06:40.093Z,42.96
2023-02-26T17:09:32.121Z,42.95
2023-02-26T17:12:14.022Z,43.04
2023-02-26T17:14:49.580Z,43.15
2023-02-26T17:17:21.902Z,43.22
2023-02-26T17:19:54.436Z,43.27
2023-02-26T17:22:30.120Z,43.24
2023-02-26T17:25:02.519Z,43.48
2023-02-26T17:27:37.666Z,43.65
2023-02-26T17:30:17.214Z,43.81
2023-02-26T17:32:49.807Z,44.01
2023-02-26T17:35:22.240Z,44.30
2023-02-26T17:37:54.935Z,44.41
2023-02-26T17:40:29.508Z,44.47
2023-02-26T17:43:03.891Z,44.77
2023-02-26T17:45:38.109Z,44.93
2023-02-26T17:48:12.743Z,45.10
2023-02-26T17:50:48.328Z,45.31
2023-02-26T17:53:22.362Z,45.49
2023-02-26T17:55:56.658Z,45.60
2023-02-26T17:58:32.264Z,45.86
2023-02-26T18:01:05.314Z,45.92
2023-02-26T18:03:39.930Z,46.24
2023-02-26T18:06:15.022Z,46.48
2023-02-26T18:08:48.750Z,46.50
2023-02-26T18:11:24.073Z,46.58
2023-02-26T18:13:57.041Z,46.78
2023-02-26T18:16:34.244Z,47.03
2023-02-26T18:19:07.719Z,47.22
2023-02-26T18:21:40.063Z,47.47
2023-02-26T18:24:12.666Z,47.62
2023-02-26T18:26:45.154Z,47.71
2023-02-26T18:29:17.460Z,48.00
2023-02-26T18:31:50.075Z,48.04
2023-02-26T18:34:23.792Z,48.31
2023-02-26T18:36:56.086Z,48.17
2023-02-26T18:39:32.640Z,48.41
2023-02-26T18:42:05.159Z,48.57
2023-02-26T18:44:37.572Z,48.80
2023-02-26T18:47:10.419Z,48.96
2023-02-26T18:49:42.928Z,49.09
2023-02-26T18:52:15.984Z,49.30
2023-02-26T18:54:48.210Z,49.50
2023-02-26T18:57:20.498Z,49.91
2023-02-26T18:59:53.033Z,49.92
2023-02-26T19:02:25.583Z,50.13
2023-02-26T19:04:58.094Z,50.22
2023-02-26T19:07:30.745Z,50.76
2023-02-26T19:10:03.603Z,50.55
2023-02-26T19:12:36.315Z,50.76
2023-02-26T19:15:11.473Z,51.04
2023-02-26T19:17:44.188Z,51.12
2023-02-26T19:20:18.725Z,51.22
2023-02-26T19:22:51.004Z,51.54
2023-02-26T19:25:27.237Z,51.60
2023-02-26T19:27:59.587Z,51.64
2023-02-26T19:30:32.268Z,51.99
2023-02-26T19:33:05.119Z,51.95
2023-02-26T19:35:37.819Z,52.08
2023-02-26T19:38:10.535Z,52.20
2023-02-26T19:40:43.764Z,52.41
2023-02-26T19:43:16.205Z,52.59
2023-02-26T19:45:48.592Z,52.72
2023-02-26T19:48:21.300Z,53.04
2023-02-26T19:50:56.005Z,53.23
2023-02-26T19:53:29.646Z,53.62
2023-02-26T19:56:02.353Z,53.45
2023-02-26T19:58:35.137Z,53.33
2023-02-26T20:01:08.127Z,53.43
2023-02-26T20:03:40.606Z,53.48
2023-02-26T20:06:13.880Z,53.61
2023-02-26T20:08:46.359Z,53.71
2023-02-26T20:11:18.680Z,53.67
2023-02-26T20:13:51.185Z,53.92
2023-02-26T20:16:23.519Z,53.96
2023-02-26T20:18:55.825Z,54.09
2023-02-26T20:21:28.882Z,54.33
2023-02-26T20:24:01.455Z,54.45
2023-02-26T20:26:34.175Z,54.38
2023-02-26T20:29:06.569Z,54.73
2023-02-26T20:31:39.447Z,54.89
2023-02-26T20:34:11.983Z,54.99
2023-02-26T20:36:45.537Z,54.82
2023-02-26T20:39:19.630Z,54.96
2023-02-26T20:41:52.058Z,55.17
2023-02-26T20:44:24.896Z,55.60
2023-02-26T20:46:57.231Z,55.56
2023-02-26T20:49:30.292Z,55.30
2023-02-26T20:52:02.822Z,55.36
2023-02-26T20:54:35.284Z,55.71
2023-02-26T20:57:07.732Z,56.45
2023-02-26T20:59:40.252Z,55.98
2023-02-26T21:02:15.600Z,55.81
2023-02-26T21:04:48.107Z,56.24
2023-02-26T21:07:23.084Z,55.95
2023-02-26T21:09:55.747Z,55.87
2023-02-26T21:12:31.011Z,56.10
2023-02-26T21:15:03.598Z,56.00
2023-02-26T21:17:35.911Z,56.18
2023-02-26T21:20:10.526Z,56.26
2023-02-26T21:22:43.270Z,56.43
2023-02-26T21:25:15.595Z,56.38
2023-02-26T21:27:48.003Z,56.43
2023-02-26T21:30:21.073Z,56.36
2023-02-26T21:32:53.684Z,56.38
2023-02-26T21:35:26.070Z,56.66
2023-02-26T21:38:00.399Z,56.70
2023-02-26T21:40:32.800Z,56.74
2023-02-26T21:43:05.305Z,56.76
2023-02-26T21:45:37.670Z,56.99
2023-02-26T21:48:10.416Z,56.80
2023-02-26T21:50:42.722Z,56.67
2023-02-26T21:53:14.953Z,56.93
2023-02-26T21:55:47.258Z,57.10
2023-02-26T21:58:19.678Z,57.06
2023-02-26T22:00:52.701Z,57.10
2023-02-26T22:03:25.135Z,57.37
2023-02-26T22:05:57.485Z,57.42
2023-02-26T22:08:29.810Z,57.43
2023-02-26T22:11:02.258Z,57.70
2023-02-26T22:13:34.653Z,57.88
2023-02-26T22:16:08.121Z,57.73
2023-02-26T22:18:40.792Z,58.18
2023-02-26T22:21:13.566Z,57.89
2023-02-26T22:23:45.837Z,58.07
2023-02-26T22:26:18.451Z,57.63
2023-02-26T22:28:50.911Z,58.03
2023-02-26T22:31:23.198Z,58.15
2023-02-26T22:33:56.574Z,58.00
2023-02-26T22:36:30.277Z,58.43
2023-02-26T22:39:02.672Z,58.25
2023-02-26T22:41:35.692Z,58.62
2023-02-26T22:44:08.781Z,58.44
2023-02-26T22:46:41.145Z,58.58
2023-02-26T22:49:13.465Z,58.50
2023-02-26T22:51:45.891Z,58.87
2023-02-26T22:54:18.267Z,58.89
2023-02-26T22:56:50.572Z,58.86
2023-02-26T22:59:22.861Z,58.90
2023-02-26T23:01:55.270Z,58.76
2023-02-26T23:04:28.083Z,58.77
2023-02-26T23:07:00.284Z,58.74
2023-02-26T23:09:32.728Z,59.01
2023-02-26T23:12:05.417Z,59.02
2023-02-26T23:14:37.959Z,59.05
2023-02-26T23:17:11.508Z,59.05
2023-02-26T23:19:44.182Z,59.10
2023-02-26T23:22:16.634Z,59.07
2023-02-26T23:24:48.998Z,59.24
2023-02-26T23:27:21.298Z,59.31
2023-02-26T23:29:53.731Z,59.22
2023-02-26T23:32:26.090Z,59.31
2023-02-26T23:34:59.087Z,59.48
2023-02-26T23:37:31.398Z,59.50
2023-02-26T23:40:04.077Z,59.62
2023-02-26T23:42:36.838Z,59.63
2023-02-26T23:45:11.181Z,59.63
2023-02-26T23:47:43.576Z,59.59
2023-02-26T23:50:16.471Z,59.84
2023-02-26T23:52:48.737Z,59.97
2023-02-26T23:55:21.050Z,60.10
2023-02-26T23:57:53.656Z,59.88
